Terminal Aerodrome Forecast
Issued by NWS Bismarck, ND

Home | Current Version | Previous Version | Text Only | Print | Product List | Glossary On
Versions: 1 2 3 4 5 6 7 8 9 10 11 12 13 14 15 16 17 18
000
FTUS43 KBIS 301143
TAFISN
TAF
KISN 301143Z 3012/3112 26005KT P6SM SCT080
     FM301400 33012KT P6SM SKC
     FM302100 32012G20KT P6SM FEW070
     FM310200 31005KT P6SM SKC
     FM310600 28004KT P6SM SKC=

USA.gov is the U.S. government's official web portal to all federal, state and local government web resources and services.